Time;durP1;ratioP1;P1;durP2;ratioP2;P2;SDS_P1;SDS_P2;PMS_P1;PMS_P2;Temp;Humidity;BMP_temperature;BMP_pressure;BME280_temperature;BME280_humidity;BME280_pressure;Samples;Min_cycle;Max_cycle;Signal;HPM_P1;HPM_P2
2022/06/18 00:01:00;;;;;;;6.97;5.17;;;;;;;19.38;100.00;96990.66;4985669;28;20544;-50
2022/06/18 00:03:29;;;;;;;6.00;4.90;;;;;;;19.47;100.00;96990.56;4988273;28;20069;-43
2022/06/18 00:05:58;;;;;;;7.72;5.15;;;;;;;19.58;100.00;96988.25;4986477;28;20074;-45
2022/06/18 00:08:29;;;;;;;8.45;5.10;;;;;;;19.46;100.00;96981.69;4985140;28;20165;-45
2022/06/18 00:13:39;;;;;;;7.90;5.38;;;;;;;19.55;100.00;96977.91;4989099;28;20069;-46
2022/06/18 00:13:49;;;;;;;7.13;5.07;;;;;;;19.43;100.00;96977.53;4989260;28;20072;-45
2022/06/18 00:16:20;;;;;;;6.80;5.35;;;;;;;19.26;100.00;96969.94;4990134;28;20126;-47
2022/06/18 00:18:51;;;;;;;8.23;5.28;;;;;;;19.16;100.00;96970.22;4990731;28;20070;-44
2022/06/18 00:21:23;;;;;;;7.57;5.30;;;;;;;19.20;100.00;96972.34;4984005;28;20062;-44
2022/06/18 00:23:51;;;;;;;7.43;5.28;;;;;;;19.01;100.00;96980.09;4971443;28;20071;-50
2022/06/18 00:26:20;;;;;;;6.95;4.95;;;;;;;18.80;100.00;96983.50;4988934;28;20089;-50
2022/06/18 00:28:49;;;;;;;7.47;5.28;;;;;;;18.96;100.00;96983.34;4987154;28;20066;-49
2022/06/18 00:31:17;;;;;;;8.50;4.80;;;;;;;18.84;100.00;96984.78;4986579;28;20555;-54
2022/06/18 00:33:45;;;;;;;7.55;5.40;;;;;;;18.74;100.00;96980.53;4989564;28;20531;-50
2022/06/18 00:36:18;;;;;;;12.23;5.15;;;;;;;18.82;100.00;96981.47;4988547;28;20069;-57
2022/06/18 00:38:48;;;;;;;6.43;4.97;;;;;;;18.90;100.00;96979.53;4989830;28;20070;-48
2022/06/18 00:41:20;;;;;;;7.72;4.78;;;;;;;18.79;100.00;96974.66;4987246;28;20470;-48
2022/06/18 00:43:51;;;;;;;5.45;4.93;;;;;;;18.77;100.00;96975.84;4971418;28;20167;-47
2022/06/18 00:46:26;;;;;;;9.23;5.43;;;;;;;18.63;100.00;96975.63;4982205;28;20062;-46
2022/06/18 00:48:59;;;;;;;5.72;5.10;;;;;;;18.56;100.00;96968.53;4977237;28;20458;-46
2022/06/18 00:51:31;;;;;;;6.35;5.18;;;;;;;18.37;100.00;96972.53;5000092;28;20061;-49
2022/06/18 00:54:04;;;;;;;6.97;5.28;;;;;;;18.54;100.00;96976.69;4969218;28;20073;-48
2022/06/18 00:56:56;;;;;;;5.82;5.18;;;;;;;18.44;100.00;96986.81;4971170;28;20453;-50
2022/06/18 00:59:31;;;;;;;8.73;5.95;;;;;;;18.38;100.00;96980.38;4988682;28;20070;-49
2022/06/18 01:02:01;;;;;;;6.25;5.15;;;;;;;18.44;100.00;96985.00;4971609;28;20073;-48
2022/06/18 01:04:31;;;;;;;10.07;5.90;;;;;;;18.56;100.00;96977.38;4981447;28;20077;-49
2022/06/18 01:07:03;;;;;;;6.97;5.32;;;;;;;18.60;100.00;96984.00;4986524;28;20525;-57
2022/06/18 01:09:32;;;;;;;7.18;5.80;;;;;;;18.44;100.00;96984.16;4979852;28;20066;-50
2022/06/18 01:12:01;;;;;;;6.97;5.38;;;;;;;18.30;100.00;96991.09;4971403;28;20082;-47
2022/06/18 01:14:31;;;;;;;6.72;5.45;;;;;;;18.36;100.00;96986.91;4988483;28;20352;-47
2022/06/18 01:17:02;;;;;;;8.18;5.55;;;;;;;18.42;100.00;96983.50;4969356;28;20058;-46
2022/06/18 01:19:33;;;;;;;6.50;5.70;;;;;;;18.41;100.00;96985.34;4968346;28;20069;-45
2022/06/18 01:22:13;;;;;;;6.22;5.50;;;;;;;18.12;100.00;96986.09;4979881;28;20493;-48
2022/06/18 01:24:44;;;;;;;9.82;6.05;;;;;;;18.23;100.00;96988.31;4987920;28;20070;-44
2022/06/18 01:27:12;;;;;;;11.73;5.93;;;;;;;18.30;100.00;96991.09;4989000;28;20454;-46
2022/06/18 01:29:42;;;;;;;9.07;6.22;;;;;;;18.23;100.00;96995.50;4988332;28;20097;-47
2022/06/18 01:32:13;;;;;;;6.57;5.82;;;;;;;18.25;100.00;96993.50;4988584;28;21464;-50
2022/06/18 01:34:42;;;;;;;6.90;5.57;;;;;;;18.22;100.00;96996.53;4985279;28;20551;-48
2022/06/18 01:37:11;;;;;;;7.78;5.88;;;;;;;18.17;100.00;96996.22;4988117;28;20062;-48
2022/06/18 01:39:43;;;;;;;8.95;6.20;;;;;;;18.12;100.00;96991.44;4988654;28;20076;-50
2022/06/18 01:42:15;;;;;;;8.35;5.90;;;;;;;18.07;100.00;96983.16;4988039;28;20062;-47
2022/06/18 01:44:48;;;;;;;7.97;5.70;;;;;;;17.87;100.00;96988.13;4987365;28;20082;-50
2022/06/18 01:47:20;;;;;;;9.98;5.68;;;;;;;17.87;100.00;96988.13;4984062;28;20081;-44
2022/06/18 01:49:52;;;;;;;10.27;5.68;;;;;;;17.75;100.00;96981.50;4987460;28;20074;-46
2022/06/18 01:52:23;;;;;;;6.32;5.60;;;;;;;17.76;100.00;96976.03;4983872;28;20608;-45
2022/06/18 01:54:55;;;;;;;7.35;5.65;;;;;;;17.59;100.00;96977.09;5016996;28;20073;-47
2022/06/18 01:57:27;;;;;;;9.20;6.15;;;;;;;17.69;100.00;96966.22;4988544;28;20517;-45
2022/06/18 01:59:57;;;;;;;7.18;6.20;;;;;;;17.69;100.00;96972.38;4985495;28;20072;-44
2022/06/18 02:02:26;;;;;;;7.28;5.68;;;;;;;17.72;100.00;96964.03;4968357;28;20086;-55
2022/06/18 02:04:54;;;;;;;8.15;5.78;;;;;;;17.52;100.00;96966.31;4985395;28;20062;-49
2022/06/18 02:07:23;;;;;;;10.88;5.97;;;;;;;17.54;100.00;96960.78;4986138;28;20069;-47
2022/06/18 02:09:55;;;;;;;6.45;5.72;;;;;;;17.38;100.00;96963.53;4978359;28;20078;-47
2022/06/18 02:12:26;;;;;;;8.13;5.70;;;;;;;17.27;100.00;96965.63;4968368;28;20070;-44
2022/06/18 02:14:58;;;;;;;8.27;6.07;;;;;;;17.19;100.00;96960.31;4969659;28;20054;-43
2022/06/18 02:17:27;;;;;;;6.13;5.50;;;;;;;17.22;100.00;96959.13;4987333;28;20178;-45
2022/06/18 02:19:59;;;;;;;7.30;6.00;;;;;;;17.16;100.00;96965.16;4969837;28;20799;-44
2022/06/18 02:22:30;;;;;;;11.77;6.10;;;;;;;17.05;100.00;96961.03;4968100;28;20446;-46
2022/06/18 02:25:00;;;;;;;5.97;5.30;;;;;;;17.12;100.00;96954.00;4975201;28;20066;-46
2022/06/18 02:27:28;;;;;;;9.40;5.97;;;;;;;17.07;100.00;96956.38;4992170;28;20061;-44
2022/06/18 02:29:57;;;;;;;8.10;5.88;;;;;;;16.97;100.00;96971.72;4986546;28;20089;-50
2022/06/18 02:32:29;;;;;;;8.32;5.85;;;;;;;17.12;100.00;96959.34;4985468;28;20061;-44
2022/06/18 02:34:59;;;;;;;7.40;6.20;;;;;;;16.81;100.00;96973.44;4986401;28;20085;-49
2022/06/18 02:37:31;;;;;;;7.00;6.30;;;;;;;16.92;100.00;96972.22;4986393;28;20069;-53
2022/06/18 02:40:03;;;;;;;8.18;6.10;;;;;;;16.89;100.00;96961.09;4986202;28;20531;-45
2022/06/18 02:42:34;;;;;;;7.03;5.90;;;;;;;17.00;100.00;96958.91;4986939;28;20062;-46
2022/06/18 02:45:04;;;;;;;6.82;6.13;;;;;;;16.90;100.00;96963.59;4986138;28;20453;-52
2022/06/18 02:47:32;;;;;;;;;;;;;;;16.92;100.00;96958.91;4985331;28;20066;-45
2022/06/18 02:50:03;;;;;;;7.80;6.13;;;;;;;16.96;100.00;96962.06;4987462;28;19956;-47
2022/06/18 02:52:35;;;;;;;11.38;6.90;;;;;;;16.99;100.00;96961.72;4986653;28;20069;-45
2022/06/18 02:55:13;;;;;;;8.85;6.20;;;;;;;16.74;100.00;96964.47;4986430;28;20050;-45
2022/06/18 02:57:42;;;;;;;7.07;5.90;;;;;;;16.90;100.00;96960.09;4987162;28;20081;-45
2022/06/18 03:00:13;;;;;;;8.52;6.20;;;;;;;16.90;100.00;96960.09;4986198;28;20062;-47
2022/06/18 03:02:42;;;;;;;9.52;6.32;;;;;;;16.97;100.00;96948.59;4986966;28;20531;-49
2022/06/18 03:05:18;;;;;;;8.13;5.93;;;;;;;16.97;100.00;96953.91;4986572;28;20069;-53
2022/06/18 03:07:46;;;;;;;8.85;6.55;;;;;;;16.91;100.00;96953.75;4986099;28;20066;-45
2022/06/18 03:13:04;;;;;;;8.85;6.13;;;;;;;16.70;100.00;96960.44;4986700;28;20404;-45
2022/06/18 03:15:32;;;;;;;6.45;5.57;;;;;;;16.83;100.00;96960.78;4986711;28;20069;-46
2022/06/18 03:18:01;;;;;;;7.18;5.93;;;;;;;16.82;100.00;96951.09;4985755;28;20066;-50
2022/06/18 03:20:35;;;;;;;8.27;6.13;;;;;;;16.84;100.00;96951.78;4986511;28;20078;-50
2022/06/18 03:23:05;;;;;;;7.53;6.72;;;;;;;16.81;100.00;96962.78;4985968;28;20544;-47
2022/06/18 03:25:34;;;;;;;7.72;6.47;;;;;;;16.80;100.00;96958.47;4985939;28;20074;-45
2022/06/18 03:28:03;;;;;;;7.38;6.40;;;;;;;16.70;100.00;96954.31;4986752;28;20058;-49
2022/06/18 03:30:31;;;;;;;9.20;6.28;;;;;;;16.93;100.00;96951.75;4986004;28;20077;-55
2022/06/18 03:33:00;;;;;;;6.53;5.72;;;;;;;16.80;100.00;96953.13;4986969;28;20089;-46
2022/06/18 03:35:28;;;;;;;6.63;5.93;;;;;;;17.05;100.00;96948.53;4986698;28;20082;-45
2022/06/18 03:37:57;;;;;;;6.57;5.97;;;;;;;17.06;100.00;96952.03;4986720;28;20065;-47
2022/06/18 03:40:25;;;;;;;6.38;5.68;;;;;;;17.00;100.00;96945.56;4986782;28;20066;-50
2022/06/18 03:42:55;;;;;;;7.88;5.57;;;;;;;16.94;100.00;96948.09;4989337;28;20070;-46
2022/06/18 03:45:24;;;;;;;7.47;5.50;;;;;;;16.94;100.00;96943.59;4989569;28;20070;-50
2022/06/18 03:47:52;;;;;;;11.27;5.70;;;;;;;17.25;100.00;96942.78;4989310;28;20110;-49
2022/06/18 03:50:21;;;;;;;6.57;5.82;;;;;;;17.71;100.00;96934.84;4987648;28;20074;-45
2022/06/18 03:52:50;;;;;;;7.50;5.03;;;;;;;18.05;100.00;96936.28;4987777;28;20080;-51
2022/06/18 03:55:18;;;;;;;7.55;5.25;;;;;;;17.53;100.00;96935.13;4990333;28;20083;-46
2022/06/18 03:57:46;;;;;;;8.57;5.60;;;;;;;18.15;100.00;96937.69;4989428;28;20468;-45
2022/06/18 04:00:21;;;;;;;6.82;5.28;;;;;;;18.77;100.00;96935.78;4985724;28;20480;-46
2022/06/18 04:02:50;;;;;;;6.43;4.82;;;;;;;19.30;100.00;96931.91;4987737;28;20536;-49
2022/06/18 04:05:18;;;;;;;6.40;5.50;;;;;;;19.52;100.00;96923.97;4986652;28;20650;-46
2022/06/18 04:07:47;;;;;;;7.72;5.75;;;;;;;20.02;100.00;96928.38;4989097;28;20063;-49
2022/06/18 04:10:18;;;;;;;5.85;5.10;;;;;;;20.38;100.00;96916.72;4989571;28;20070;-46
2022/06/18 04:12:47;;;;;;;5.43;4.78;;;;;;;20.70;100.00;96912.63;4989228;28;20139;-51
2022/06/18 04:15:22;;;;;;;6.80;5.35;;;;;;;21.40;100.00;96918.75;4987873;28;20500;-47
2022/06/18 04:17:50;;;;;;;5.88;4.97;;;;;;;21.24;100.00;96913.72;4989492;28;20081;-48
2022/06/18 04:20:22;;;;;;;5.75;5.07;;;;;;;21.79;100.00;96909.16;4986520;28;20069;-45
2022/06/18 04:22:50;;;;;;;5.32;4.80;;;;;;;21.59;100.00;96908.28;4986919;28;20074;-49
2022/06/18 04:25:19;;;;;;;5.32;4.72;;;;;;;22.14;100.00;96909.78;4988293;28;20080;-44
2022/06/18 04:27:48;;;;;;;7.38;4.72;;;;;;;21.90;100.00;96908.53;4988824;28;20065;-51
2022/06/18 04:30:18;;;;;;;6.22;4.63;;;;;;;21.87;100.00;96908.94;4988403;28;20068;-48
2022/06/18 04:32:47;;;;;;;5.30;4.72;;;;;;;22.92;100.00;96898.34;4988963;28;20081;-49
2022/06/18 04:35:16;;;;;;;5.60;4.85;;;;;;;22.61;100.00;96905.25;4990443;28;20078;-44
2022/06/18 04:37:45;;;;;;;6.28;4.43;;;;;;;22.44;100.00;96904.84;4988686;28;21287;-52
2022/06/18 04:40:14;;;;;;;5.53;4.50;;;;;;;23.16;100.00;96908.44;4989760;28;20073;-48
2022/06/18 04:43:03;;;;;;;14.10;5.10;;;;;;;22.39;100.00;96904.63;4987749;28;20078;-46
2022/06/18 04:45:32;;;;;;;5.95;4.60;;;;;;;23.40;100.00;96911.41;4990976;28;20465;-52
2022/06/18 04:48:03;;;;;;;5.35;4.50;;;;;;;23.53;100.00;96908.66;4991857;28;20368;-51
2022/06/18 04:50:32;;;;;;;;;;;;;;;24.02;100.00;96907.16;4992572;28;20089;-51
2022/06/18 04:53:00;;;;;;;6.55;5.00;;;;;;;24.39;100.00;96912.63;4984870;28;19996;-51
2022/06/18 04:55:29;;;;;;;6.25;4.65;;;;;;;24.36;100.00;96908.53;4990728;28;20081;-48
2022/06/18 04:57:57;;;;;;;6.63;4.75;;;;;;;24.07;100.00;96906.47;4991113;28;20085;-51
2022/06/18 05:00:26;;;;;;;6.70;4.40;;;;;;;24.24;100.00;96904.06;4991338;28;20073;-44
2022/06/18 05:02:55;;;;;;;5.13;4.63;;;;;;;24.47;100.00;96907.00;4990964;28;20454;-44
2022/06/18 05:05:26;;;;;;;5.00;4.60;;;;;;;24.50;100.00;96911.97;4991721;28;20078;-41
2022/06/18 05:07:54;;;;;;;5.90;4.80;;;;;;;24.60;100.00;96903.34;4991046;28;20066;-44
2022/06/18 05:10:23;;;;;;;7.30;4.43;;;;;;;24.63;100.00;96914.50;4990809;28;20073;-41
2022/06/18 05:12:51;;;;;;;8.05;4.88;;;;;;;24.35;100.00;96906.84;4987827;28;20105;-48
2022/06/18 05:15:20;;;;;;;5.13;4.60;;;;;;;24.06;100.00;96907.53;4987215;28;20065;-47
2022/06/18 05:17:48;;;;;;;5.28;4.43;;;;;;;24.20;100.00;96908.25;4987232;28;20086;-51
2022/06/18 05:20:20;;;;;;;5.78;4.53;;;;;;;24.91;100.00;96913.19;4990153;28;20081;-51
2022/06/18 05:22:49;;;;;;;5.10;4.60;;;;;;;24.87;100.00;96911.97;4990804;28;20193;-47
2022/06/18 05:25:19;;;;;;;5.50;4.30;;;;;;;24.35;100.00;96920.34;4990759;28;20540;-49
2022/06/18 05:27:48;;;;;;;7.03;4.60;;;;;;;25.14;100.00;96923.34;4990578;28;20139;-51
2022/06/18 05:30:21;;;;;;;5.03;4.63;;;;;;;24.72;100.00;96922.31;4990728;28;20434;-46
2022/06/18 05:32:50;;;;;;;6.07;4.82;;;;;;;24.47;100.00;96928.56;4990882;28;20078;-48
2022/06/18 05:35:19;;;;;;;5.18;4.35;;;;;;;24.95;100.00;96921.66;4991130;28;20093;-47
2022/06/18 05:37:50;;;;;;;5.72;4.53;;;;;;;24.81;100.00;96920.97;4990412;28;20062;-44
2022/06/18 05:40:20;;;;;;;5.95;4.25;;;;;;;24.88;100.00;96916.34;4990635;28;20070;-50
2022/06/18 05:42:49;;;;;;;6.47;4.35;;;;;;;25.68;100.00;96924.31;4990425;28;20096;-44
2022/06/18 05:45:17;;;;;;;4.85;4.45;;;;;;;26.03;100.00;96924.44;4990568;28;20539;-49
2022/06/18 05:47:46;;;;;;;5.03;4.50;;;;;;;25.79;100.00;96923.56;4987386;28;20490;-50
2022/06/18 05:50:17;;;;;;;5.85;4.43;;;;;;;25.58;100.00;96918.63;4986919;28;20073;-49
2022/06/18 05:52:45;;;;;;;5.10;4.60;;;;;;;25.34;100.00;96923.09;4988106;28;20089;-51
2022/06/18 05:55:20;;;;;;;5.40;4.50;;;;;;;24.74;100.00;96923.75;4988229;28;20074;-47
2022/06/18 05:57:51;;;;;;;4.95;4.30;;;;;;;25.73;100.00;96915.50;4986656;28;20074;-47
2022/06/18 06:00:25;;;;;;;5.13;4.60;;;;;;;25.40;100.00;96921.38;4985457;28;20078;-47
2022/06/18 06:02:53;;;;;;;5.60;3.95;;;;;;;25.29;100.00;96917.53;4988630;28;20078;-44
2022/06/18 06:05:22;;;;;;;4.15;3.85;;;;;;;25.10;100.00;96922.13;4973208;28;20082;-45
2022/06/18 06:07:50;;;;;;;4.38;3.75;;;;;;;25.26;100.00;96913.44;4977542;28;20104;-45
2022/06/18 06:13:12;;;;;;;3.95;3.50;;;;;;;25.67;100.00;96925.38;4989631;28;20081;-47
2022/06/18 06:15:41;;;;;;;4.30;3.72;;;;;;;25.62;100.00;96922.53;4985060;28;20078;-51
2022/06/18 06:18:11;;;;;;;5.65;3.85;;;;;;;24.99;100.00;96922.88;4990093;28;20058;-54
2022/06/18 06:20:42;;;;;;;5.65;3.90;;;;;;;24.51;100.00;96928.97;4993901;28;20661;-45
2022/06/18 06:23:11;;;;;;;4.75;4.00;;;;;;;24.30;100.00;96927.44;4986806;28;20606;-50
2022/06/18 06:25:41;;;;;;;4.95;3.90;;;;;;;24.94;100.00;96918.13;4985555;28;20089;-47
2022/06/18 06:28:14;;;;;;;5.47;4.05;;;;;;;24.15;100.00;96923.19;4983659;28;20516;-49
2022/06/18 06:30:43;;;;;;;6.10;3.53;;;;;;;24.74;100.00;96915.66;4986053;28;20070;-43
2022/06/18 06:33:11;;;;;;;4.38;3.95;;;;;;;24.74;100.00;96920.22;4987697;28;20062;-46
2022/06/18 06:35:40;;;;;;;6.40;3.80;;;;;;;25.40;100.00;96918.69;4987547;28;20089;-46
2022/06/18 06:38:10;;;;;;;8.57;3.63;;;;;;;25.74;100.00;96918.00;4987106;28;20061;-46
2022/06/18 06:40:41;;;;;;;8.07;3.65;;;;;;;25.75;100.00;96919.63;4987301;28;20465;-48
2022/06/18 06:43:11;;;;;;;5.80;3.67;;;;;;;25.75;100.00;96916.94;4987652;28;20587;-48
2022/06/18 06:45:40;;;;;;;7.65;3.78;;;;;;;25.16;100.00;96915.84;4986203;28;20525;-51
2022/06/18 06:48:08;;;;;;;5.78;3.30;;;;;;;25.19;100.00;96915.41;4987226;28;20673;-58
2022/06/18 06:50:36;;;;;;;3.63;3.30;;;;;;;25.47;100.00;96911.31;4986473;28;20483;-49
2022/06/18 06:53:05;;;;;;;3.78;3.40;;;;;;;25.57;100.00;96915.13;4986323;28;20742;-47
2022/06/18 06:58:23;;;;;;;4.68;3.13;;;;;;;25.60;100.00;96913.00;4980563;28;20074;-50
2022/06/18 07:00:52;;;;;;;;;;;;;;;25.48;100.00;96913.78;4987151;28;20081;-51
2022/06/18 07:03:24;;;;;;;4.55;3.20;;;;;;;25.82;100.00;96910.66;4980206;28;20374;-52
2022/06/18 07:05:53;;;;;;;4.88;3.03;;;;;;;26.30;100.00;96904.28;4968409;28;20085;-47
2022/06/18 07:08:21;;;;;;;5.32;2.90;;;;;;;26.37;100.00;96902.28;4970045;28;20081;-50
2022/06/18 07:10:50;;;;;;;6.57;3.33;;;;;;;26.53;100.00;96898.91;4983106;28;20080;-50
2022/06/18 07:13:19;;;;;;;5.40;2.80;;;;;;;27.04;100.00;96901.91;4987018;28;20074;-49
2022/06/18 07:15:50;;;;;;;3.65;3.25;;;;;;;26.98;100.00;96899.13;4986783;28;20085;-46
2022/06/18 07:18:20;;;;;;;5.43;3.15;;;;;;;26.05;100.00;96899.91;4986556;28;20074;-46
2022/06/18 07:20:48;;;;;;;5.40;3.47;;;;;;;26.73;100.00;96893.94;4986758;28;20081;-50
2022/06/18 07:23:17;;;;;;;3.38;3.08;;;;;;;26.57;100.00;96902.81;4983724;28;20248;-48
2022/06/18 07:25:45;;;;;;;4.60;3.35;;;;;;;26.91;100.00;96898.44;4986911;28;20959;-50
2022/06/18 07:28:14;;;;;;;4.70;3.45;;;;;;;27.55;100.00;96889.44;4987068;28;20069;-46
2022/06/18 07:30:42;;;;;;;9.32;3.20;;;;;;;26.72;100.00;96883.38;4985897;28;20078;-48
2022/06/18 07:33:15;;;;;;;5.57;3.17;;;;;;;27.09;100.00;96872.25;4983588;28;20063;-49
2022/06/18 07:35:43;;;;;;;5.45;3.30;;;;;;;27.23;100.00;96867.44;4966610;28;20086;-47
2022/06/18 07:38:11;;;;;;;4.32;3.22;;;;;;;26.93;100.00;96871.09;4965699;28;21245;-47
2022/06/18 07:40:44;;;;;;;4.07;3.00;;;;;;;26.81;100.00;96865.72;4981881;28;20100;-45
2022/06/18 07:43:16;;;;;;;5.20;3.15;;;;;;;27.92;100.00;96871.72;4986888;28;20066;-49
2022/06/18 07:45:44;;;;;;;3.42;3.03;;;;;;;27.40;100.00;96861.00;4978246;28;20075;-48
2022/06/18 07:48:15;;;;;;;4.03;3.35;;;;;;;27.87;100.00;96862.66;4971987;28;20460;-44
2022/06/18 07:50:46;;;;;;;3.28;2.97;;;;;;;27.68;100.00;96868.28;4985942;28;20491;-48
2022/06/18 07:53:18;;;;;;;4.05;3.10;;;;;;;27.83;100.00;96856.09;4974245;28;20066;-46
2022/06/18 07:55:47;;;;;;;4.28;3.10;;;;;;;27.63;100.00;96857.38;4984019;28;20065;-48
2022/06/18 07:58:16;;;;;;;5.43;3.00;;;;;;;28.35;100.00;96850.44;4986044;28;20673;-48
2022/06/18 08:00:45;;;;;;;3.95;3.17;;;;;;;29.04;99.96;96856.34;4986595;28;20085;-52
2022/06/18 08:03:16;;;;;;;3.85;2.80;;;;;;;28.90;97.41;96855.03;4980983;28;20062;-44
2022/06/18 08:05:46;;;;;;;4.45;3.13;;;;;;;29.05;100.00;96851.72;4966110;28;20093;-47
2022/06/18 08:08:15;;;;;;;6.30;3.08;;;;;;;28.41;100.00;96844.03;4969604;28;20066;-45
2022/06/18 08:11:02;;;;;;;6.07;3.08;;;;;;;28.32;100.00;96845.50;4981736;28;20078;-53
2022/06/18 08:13:32;;;;;;;3.05;2.80;;;;;;;28.86;96.29;96840.31;4986050;28;20070;-45
2022/06/18 08:16:00;;;;;;;3.17;2.88;;;;;;;28.72;93.44;96847.19;4985709;28;20066;-50
2022/06/18 08:18:30;;;;;;;3.47;2.92;;;;;;;28.47;96.87;96840.34;4986473;28;20085;-48
2022/06/18 08:21:01;;;;;;;5.10;3.15;;;;;;;28.50;100.00;96837.13;4987493;28;20093;-51
2022/06/18 08:23:30;;;;;;;4.20;3.08;;;;;;;29.50;95.58;96831.59;4987637;28;20082;-50
2022/06/18 08:25:58;;;;;;;4.47;2.97;;;;;;;29.67;84.43;96840.50;4988299;28;20073;-45
2022/06/18 08:28:26;;;;;;;3.28;2.60;;;;;;;29.63;78.11;96828.50;4988148;28;20077;-47
2022/06/18 08:30:56;;;;;;;3.45;2.80;;;;;;;29.75;78.59;96829.13;4991365;28;20534;-48
2022/06/18 08:33:24;;;;;;;4.63;3.10;;;;;;;29.30;84.74;96822.13;4978948;28;20070;-47
2022/06/18 08:35:54;;;;;;;4.55;2.85;;;;;;;29.44;88.11;96822.56;4979976;28;20089;-48
2022/06/18 08:38:22;;;;;;;3.17;2.88;;;;;;;30.01;81.13;96824.75;4987341;28;20755;-47
2022/06/18 08:40:58;;;;;;;5.07;2.70;;;;;;;30.50;73.03;96821.84;4984792;28;20069;-52
2022/06/18 08:43:44;;;;;;;6.43;2.70;;;;;;;30.23;74.00;96830.09;4989139;28;20069;-48
2022/06/18 08:46:20;;;;;;;4.28;2.58;;;;;;;30.65;69.69;96831.19;4988809;28;20070;-48
2022/06/18 08:49:01;;;;;;;3.92;2.72;;;;;;;30.26;69.33;96824.13;4990132;28;20080;-49
2022/06/18 08:51:36;;;;;;;5.35;2.80;;;;;;;30.35;65.20;96818.19;4989178;28;20074;-45
2022/06/18 08:54:17;;;;;;;3.45;2.83;;;;;;;30.34;65.70;96819.28;4986678;28;20070;-51
2022/06/18 08:56:49;;;;;;;4.93;2.70;;;;;;;29.82;60.54;96822.66;4987810;28;20154;-48
2022/06/18 08:59:26;;;;;;;2.92;2.28;;;;;;;30.33;58.24;96821.19;4988723;28;20462;-48
2022/06/18 09:01:59;;;;;;;4.82;2.45;;;;;;;30.89;57.81;96826.16;4987059;28;20529;-47
2022/06/18 09:04:58;;;;;;;4.50;2.47;;;;;;;30.21;61.70;96821.41;4988682;28;20066;-49
2022/06/18 09:07:44;;;;;;;3.88;2.53;;;;;;;30.62;53.93;96824.34;4986449;28;20074;-49
2022/06/18 09:10:23;;;;;;;2.45;2.25;;;;;;;30.98;54.24;96830.03;4987792;28;20046;-44
2022/06/18 09:12:57;;;;;;;5.50;2.53;;;;;;;30.48;53.07;96826.72;4989412;28;20077;-48
2022/06/18 09:15:28;;;;;;;4.30;2.25;;;;;;;30.90;52.65;96819.63;4988341;28;20069;-47
2022/06/18 09:18:00;;;;;;;2.85;2.40;;;;;;;30.94;46.05;96818.84;4988311;28;20101;-50
2022/06/18 09:20:32;;;;;;;5.95;2.67;;;;;;;31.67;49.44;96818.78;4987914;28;20560;-46
2022/06/18 09:23:06;;;;;;;3.92;2.40;;;;;;;31.20;49.27;96813.47;4987754;28;20069;-50
2022/06/18 09:25:39;;;;;;;4.15;2.25;;;;;;;31.75;45.79;96811.16;4986993;28;20062;-48
2022/06/18 09:28:09;;;;;;;3.88;2.78;;;;;;;31.08;47.26;96819.16;4986625;28;20070;-42
2022/06/18 09:30:42;;;;;;;2.72;2.08;;;;;;;31.73;44.84;96808.72;4991602;28;20073;-47
2022/06/18 09:33:14;;;;;;;5.80;2.30;;;;;;;31.38;46.20;96815.75;4986858;28;20662;-50
2022/06/18 09:35:46;;;;;;;4.78;2.60;;;;;;;30.60;45.39;96812.13;4987154;28;20093;-46
2022/06/18 09:38:19;;;;;;;6.70;2.80;;;;;;;31.84;44.51;96815.81;4967328;28;20476;-51
2022/06/18 09:40:51;;;;;;;4.90;2.10;;;;;;;31.97;43.08;96808.19;4982565;28;20077;-54
2022/06/18 09:43:25;;;;;;;4.30;2.30;;;;;;;31.57;42.86;96807.88;4988288;28;20070;-47
2022/06/18 09:45:56;;;;;;;2.85;2.20;;;;;;;32.08;42.32;96799.75;4988842;28;20072;-49
2022/06/18 09:48:25;;;;;;;4.70;2.38;;;;;;;31.56;41.37;96808.97;4990223;28;20077;-45
2022/06/18 09:50:56;;;;;;;3.67;2.55;;;;;;;32.43;43.16;96803.53;4989814;28;20082;-46
2022/06/18 09:53:27;;;;;;;5.05;2.20;;;;;;;32.45;45.37;96801.34;4987104;28;20073;-56
2022/06/18 09:55:58;;;;;;;4.15;2.20;;;;;;;32.14;43.46;96795.06;4985347;28;20784;-52
2022/06/18 09:58:30;;;;;;;3.10;2.20;;;;;;;32.25;45.22;96794.00;4988123;28;20567;-45
2022/06/18 10:01:00;;;;;;;2.22;2.00;;;;;;;32.27;45.77;96790.97;4984412;28;20066;-48
2022/06/18 10:09:29;;;;;;;3.58;2.10;;;;;;;32.38;46.31;96784.38;4985975;28;20642;-49
2022/06/18 10:11:58;;;;;;;3.42;2.38;;;;;;;31.99;41.41;96778.72;4988714;28;20085;-45
2022/06/18 10:14:27;;;;;;;4.38;2.05;;;;;;;32.66;39.26;96784.88;4989576;28;20096;-49
2022/06/18 10:17:05;;;;;;;3.88;2.20;;;;;;;32.22;40.04;96780.06;4986299;28;20066;-49
2022/06/18 10:19:42;;;;;;;7.75;2.15;;;;;;;32.13;40.26;96774.34;4987354;28;20449;-48
2022/06/18 10:22:17;;;;;;;6.68;2.35;;;;;;;32.57;40.70;96779.19;4986594;28;20578;-49
2022/06/18 10:24:53;;;;;;;3.17;2.30;;;;;;;32.14;40.98;96768.63;4987391;28;20068;-47
2022/06/18 10:27:26;;;;;;;3.42;2.10;;;;;;;32.35;42.67;96760.41;4987590;28;20076;-50
2022/06/18 10:29:59;;;;;;;3.95;2.20;;;;;;;32.79;39.84;96765.19;4987200;28;20077;-45
2022/06/18 10:32:41;;;;;;;3.78;2.30;;;;;;;32.08;39.83;96761.53;4987279;28;20077;-49
2022/06/18 10:35:19;;;;;;;2.30;2.10;;;;;;;32.45;39.71;96754.94;4985619;28;21541;-53
2022/06/18 10:38:06;;;;;;;2.15;1.98;;;;;;;32.03;40.88;96761.53;4984953;28;20699;-53
2022/06/18 10:40:46;;;;;;;4.40;2.50;;;;;;;32.85;41.90;96758.59;4986131;28;20105;-50
2022/06/18 10:43:26;;;;;;;4.05;2.20;;;;;;;32.29;41.43;96756.84;4985178;28;20062;-51
2022/06/18 10:45:55;;;;;;;;;;;;;;;32.65;39.52;96754.03;4986081;28;20170;-48
2022/06/18 10:48:30;;;;;;;5.85;2.00;;;;;;;32.26;41.79;96754.69;4984187;28;20411;-45
2022/06/18 10:51:01;;;;;;;3.90;2.38;;;;;;;32.14;39.22;96746.78;4985154;28;20085;-46
2022/06/18 10:53:31;;;;;;;3.60;2.30;;;;;;;32.88;40.87;96743.56;4986245;28;20082;-48
2022/06/18 10:56:04;;;;;;;5.80;2.10;;;;;;;33.43;39.40;96752.56;4983062;28;20062;-45
2022/06/18 10:58:33;;;;;;;2.47;2.28;;;;;;;32.68;38.85;96745.28;4985869;28;20042;-50
2022/06/18 11:01:04;;;;;;;5.38;2.60;;;;;;;33.36;37.73;96738.41;4981846;28;20454;-48
2022/06/18 11:03:34;;;;;;;8.65;4.85;;;;;;;33.23;38.14;96737.94;4985999;28;20567;-51
2022/06/18 11:06:09;;;;;;;2.90;2.13;;;;;;;32.78;40.47;96728.03;4986066;28;20088;-46
2022/06/18 11:08:38;;;;;;;3.10;2.20;;;;;;;33.27;33.68;96730.78;4987262;28;20476;-48
2022/06/18 11:11:10;;;;;;;2.38;2.17;;;;;;;33.66;34.88;96729.19;4987112;28;20078;-49
2022/06/18 11:13:41;;;;;;;2.70;2.05;;;;;;;33.33;36.70;96728.84;4986191;28;20042;-50
2022/06/18 11:16:16;;;;;;;2.65;2.30;;;;;;;32.83;37.78;96731.59;4986728;28;20070;-53
2022/06/18 11:18:51;;;;;;;2.30;2.03;;;;;;;32.98;41.07;96735.34;4986086;28;20525;-48
2022/06/18 11:21:24;;;;;;;3.10;2.40;;;;;;;32.75;36.57;96731.34;4985250;28;20090;-48
2022/06/18 11:23:55;;;;;;;5.07;2.00;;;;;;;33.51;37.43;96732.84;4982601;28;20078;-48
2022/06/18 11:26:42;;;;;;;3.75;2.20;;;;;;;34.12;36.52;96728.78;4982981;28;20504;-51
2022/06/18 11:29:19;;;;;;;4.20;2.10;;;;;;;33.24;35.91;96725.91;4985827;28;20066;-54
2022/06/18 11:31:51;;;;;;;2.40;2.20;;;;;;;33.64;37.78;96718.53;4970321;28;20521;-50
2022/06/18 11:34:23;;;;;;;3.13;2.10;;;;;;;33.65;35.47;96713.88;4979960;28;20065;-50
2022/06/18 11:36:53;;;;;;;3.40;2.20;;;;;;;33.75;37.60;96708.31;4986868;28;20070;-49
2022/06/18 11:39:33;;;;;;;3.85;2.15;;;;;;;33.17;36.35;96708.97;4985135;28;20440;-47
2022/06/18 11:42:12;;;;;;;3.47;2.30;;;;;;;33.73;35.94;96702.31;4986839;28;20074;-52
2022/06/18 11:44:45;;;;;;;4.63;2.35;;;;;;;33.73;37.82;96705.88;4986057;28;20465;-49
2022/06/18 11:47:19;;;;;;;3.10;2.35;;;;;;;34.28;41.08;96699.34;4966084;28;20614;-46
2022/06/18 11:49:59;;;;;;;5.45;2.17;;;;;;;34.04;38.42;96697.41;4983588;28;20069;-45
2022/06/18 11:52:33;;;;;;;3.28;2.30;;;;;;;33.68;35.83;96696.88;4984940;28;20077;-46
2022/06/18 11:55:11;;;;;;;3.70;1.95;;;;;;;33.75;38.08;96689.97;4986771;28;20062;-48
2022/06/18 11:57:45;;;;;;;2.83;2.35;;;;;;;33.97;36.87;96691.41;4985772;28;20074;-45
2022/06/18 12:00:19;;;;;;;2.80;2.22;;;;;;;34.06;35.89;96684.22;4984558;28;20073;-48
2022/06/18 12:02:53;;;;;;;2.58;2.20;;;;;;;33.86;35.45;96681.66;4986775;28;20053;-54